sensor_id;sensor_type;location;lat;lon;timestamp;P1;durP1;ratioP1;P2;durP2;ratioP2
63112;SDS011;49206;48.020;21.378;2023-06-22T00:00:39;7.70;;;5.72;;
63112;SDS011;49206;48.020;21.378;2023-06-22T00:01:44;8.20;;;5.97;;
63112;SDS011;49206;48.020;21.378;2023-06-22T00:02:47;8.10;;;5.90;;
63112;SDS011;49206;48.020;21.378;2023-06-22T00:03:49;7.90;;;6.25;;
63112;SDS011;49206;48.020;21.378;2023-06-22T00:04:52;9.18;;;5.97;;
63112;SDS011;49206;48.020;21.378;2023-06-22T00:05:54;8.43;;;6.20;;
63112;SDS011;49206;48.020;21.378;2023-06-22T00:06:58;9.00;;;5.82;;
63112;SDS011;49206;48.020;21.378;2023-06-22T00:08:03;7.60;;;5.68;;
63112;SDS011;49206;48.020;21.378;2023-06-22T00:09:09;7.10;;;5.65;;
63112;SDS011;49206;48.020;21.378;2023-06-22T00:10:12;8.23;;;5.97;;
63112;SDS011;49206;48.020;21.378;2023-06-22T00:11:14;9.35;;;6.78;;
63112;SDS011;49206;48.020;21.378;2023-06-22T00:12:17;10.35;;;6.20;;
63112;SDS011;49206;48.020;21.378;2023-06-22T00:13:19;9.45;;;6.43;;
63112;SDS011;49206;48.020;21.378;2023-06-22T00:14:22;7.95;;;6.53;;
63112;SDS011;49206;48.020;21.378;2023-06-22T00:15:24;9.15;;;6.25;;
63112;SDS011;49206;48.020;21.378;2023-06-22T00:16:26;7.15;;;5.90;;
63112;SDS011;49206;48.020;21.378;2023-06-22T00:17:28;11.48;;;6.43;;
63112;SDS011;49206;48.020;21.378;2023-06-22T00:18:31;8.38;;;6.43;;
63112;SDS011;49206;48.020;21.378;2023-06-22T00:19:33;9.70;;;6.18;;
63112;SDS011;49206;48.020;21.378;2023-06-22T00:21:39;9.85;;;5.88;;
63112;SDS011;49206;48.020;21.378;2023-06-22T00:22:42;9.13;;;5.93;;
63112;SDS011;49206;48.020;21.378;2023-06-22T00:23:44;9.90;;;6.18;;
63112;SDS011;49206;48.020;21.378;2023-06-22T00:24:47;9.48;;;6.78;;
63112;SDS011;49206;48.020;21.378;2023-06-22T00:25:49;8.55;;;5.53;;
63112;SDS011;49206;48.020;21.378;2023-06-22T00:26:51;7.22;;;5.82;;
63112;SDS011;49206;48.020;21.378;2023-06-22T00:27:54;7.70;;;5.53;;
63112;SDS011;49206;48.020;21.378;2023-06-22T00:28:56;9.70;;;5.60;;
63112;SDS011;49206;48.020;21.378;2023-06-22T00:29:59;8.77;;;5.97;;
63112;SDS011;49206;48.020;21.378;2023-06-22T00:31:03;6.05;;;5.40;;
63112;SDS011;49206;48.020;21.378;2023-06-22T00:32:05;7.63;;;5.25;;
63112;SDS011;49206;48.020;21.378;2023-06-22T00:33:08;9.43;;;5.60;;
63112;SDS011;49206;48.020;21.378;2023-06-22T00:34:10;13.15;;;6.32;;
63112;SDS011;49206;48.020;21.378;2023-06-22T00:35:12;9.93;;;6.05;;
63112;SDS011;49206;48.020;21.378;2023-06-22T00:36:15;7.93;;;5.72;;
63112;SDS011;49206;48.020;21.378;2023-06-22T00:37:19;6.85;;;5.22;;
63112;SDS011;49206;48.020;21.378;2023-06-22T00:38:24;9.80;;;6.38;;
63112;SDS011;49206;48.020;21.378;2023-06-22T00:39:26;12.23;;;6.13;;
63112;SDS011;49206;48.020;21.378;2023-06-22T00:40:32;8.95;;;6.03;;
63112;SDS011;49206;48.020;21.378;2023-06-22T00:41:35;10.65;;;6.47;;
63112;SDS011;49206;48.020;21.378;2023-06-22T00:42:38;13.95;;;6.05;;
63112;SDS011;49206;48.020;21.378;2023-06-22T00:43:44;8.77;;;6.40;;
63112;SDS011;49206;48.020;21.378;2023-06-22T00:44:46;8.85;;;5.90;;
63112;SDS011;49206;48.020;21.378;2023-06-22T00:45:49;8.63;;;5.85;;
63112;SDS011;49206;48.020;21.378;2023-06-22T00:46:51;8.93;;;5.85;;
63112;SDS011;49206;48.020;21.378;2023-06-22T00:47:56;8.98;;;6.07;;
63112;SDS011;49206;48.020;21.378;2023-06-22T00:48:59;8.57;;;5.63;;
63112;SDS011;49206;48.020;21.378;2023-06-22T00:50:02;9.18;;;6.55;;
63112;SDS011;49206;48.020;21.378;2023-06-22T00:51:05;7.32;;;5.63;;
63112;SDS011;49206;48.020;21.378;2023-06-22T00:52:08;11.32;;;5.97;;
63112;SDS011;49206;48.020;21.378;2023-06-22T00:53:15;9.13;;;6.20;;
63112;SDS011;49206;48.020;21.378;2023-06-22T00:54:19;6.50;;;5.68;;
63112;SDS011;49206;48.020;21.378;2023-06-22T00:55:29;7.50;;;5.57;;
63112;SDS011;49206;48.020;21.378;2023-06-22T00:56:32;10.30;;;6.60;;
63112;SDS011;49206;48.020;21.378;2023-06-22T00:57:36;8.77;;;5.95;;
63112;SDS011;49206;48.020;21.378;2023-06-22T00:58:39;9.52;;;6.15;;
63112;SDS011;49206;48.020;21.378;2023-06-22T00:59:47;8.93;;;6.22;;
63112;SDS011;49206;48.020;21.378;2023-06-22T01:00:51;9.00;;;5.40;;
63112;SDS011;49206;48.020;21.378;2023-06-22T01:01:54;10.73;;;6.13;;
63112;SDS011;49206;48.020;21.378;2023-06-22T01:02:56;9.05;;;6.05;;
63112;SDS011;49206;48.020;21.378;2023-06-22T01:03:59;10.85;;;6.55;;
63112;SDS011;49206;48.020;21.378;2023-06-22T01:05:02;9.35;;;6.28;;
63112;SDS011;49206;48.020;21.378;2023-06-22T01:06:07;8.50;;;6.15;;
63112;SDS011;49206;48.020;21.378;2023-06-22T01:08:48;12.32;;;6.28;;
63112;SDS011;49206;48.020;21.378;2023-06-22T01:10:06;9.23;;;5.90;;
63112;SDS011;49206;48.020;21.378;2023-06-22T01:11:25;10.77;;;6.28;;
63112;SDS011;49206;48.020;21.378;2023-06-22T01:12:58;8.02;;;6.18;;
63112;SDS011;49206;48.020;21.378;2023-06-22T01:16:35;8.40;;;5.90;;
63112;SDS011;49206;48.020;21.378;2023-06-22T01:17:40;7.85;;;5.32;;
63112;SDS011;49206;48.020;21.378;2023-06-22T01:18:45;10.07;;;7.03;;
63112;SDS011;49206;48.020;21.378;2023-06-22T01:19:50;11.13;;;6.22;;
63112;SDS011;49206;48.020;21.378;2023-06-22T01:20:58;9.00;;;5.55;;
63112;SDS011;49206;48.020;21.378;2023-06-22T01:22:03;9.27;;;5.93;;
63112;SDS011;49206;48.020;21.378;2023-06-22T01:24:41;8.40;;;5.57;;
63112;SDS011;49206;48.020;21.378;2023-06-22T01:25:53;8.55;;;5.82;;
63112;SDS011;49206;48.020;21.378;2023-06-22T01:29:52;11.15;;;6.47;;
63112;SDS011;49206;48.020;21.378;2023-06-22T01:31:03;7.72;;;5.55;;
63112;SDS011;49206;48.020;21.378;2023-06-22T01:32:10;12.50;;;6.57;;
63112;SDS011;49206;48.020;21.378;2023-06-22T01:33:13;11.38;;;5.97;;
63112;SDS011;49206;48.020;21.378;2023-06-22T01:34:16;8.52;;;6.10;;
63112;SDS011;49206;48.020;21.378;2023-06-22T01:35:19;9.50;;;6.00;;
63112;SDS011;49206;48.020;21.378;2023-06-22T01:36:22;10.18;;;5.85;;
63112;SDS011;49206;48.020;21.378;2023-06-22T01:37:27;9.82;;;5.75;;
63112;SDS011;49206;48.020;21.378;2023-06-22T01:38:30;11.82;;;6.78;;
63112;SDS011;49206;48.020;21.378;2023-06-22T01:39:32;9.02;;;6.15;;
63112;SDS011;49206;48.020;21.378;2023-06-22T01:40:35;9.25;;;5.72;;
63112;SDS011;49206;48.020;21.378;2023-06-22T01:41:38;9.70;;;5.95;;
63112;SDS011;49206;48.020;21.378;2023-06-22T01:42:41;8.20;;;6.00;;
63112;SDS011;49206;48.020;21.378;2023-06-22T01:43:45;10.68;;;6.40;;
63112;SDS011;49206;48.020;21.378;2023-06-22T01:44:47;9.63;;;6.60;;
63112;SDS011;49206;48.020;21.378;2023-06-22T01:45:50;9.88;;;5.80;;
63112;SDS011;49206;48.020;21.378;2023-06-22T01:46:53;10.43;;;5.53;;
63112;SDS011;49206;48.020;21.378;2023-06-22T01:47:55;9.45;;;6.03;;
63112;SDS011;49206;48.020;21.378;2023-06-22T01:48:58;8.10;;;6.10;;
63112;SDS011;49206;48.020;21.378;2023-06-22T01:50:00;9.23;;;5.85;;
63112;SDS011;49206;48.020;21.378;2023-06-22T01:51:03;11.75;;;6.32;;
63112;SDS011;49206;48.020;21.378;2023-06-22T01:52:06;9.57;;;6.65;;
63112;SDS011;49206;48.020;21.378;2023-06-22T01:53:09;9.30;;;5.70;;
63112;SDS011;49206;48.020;21.378;2023-06-22T01:54:11;10.40;;;6.25;;
63112;SDS011;49206;48.020;21.378;2023-06-22T01:55:14;11.05;;;5.85;;
63112;SDS011;49206;48.020;21.378;2023-06-22T01:56:16;9.45;;;6.28;;
63112;SDS011;49206;48.020;21.378;2023-06-22T01:57:20;9.93;;;6.20;;
63112;SDS011;49206;48.020;21.378;2023-06-22T01:58:23;8.88;;;6.10;;
63112;SDS011;49206;48.020;21.378;2023-06-22T01:59:32;7.65;;;6.10;;
63112;SDS011;49206;48.020;21.378;2023-06-22T02:00:47;7.38;;;5.80;;
63112;SDS011;49206;48.020;21.378;2023-06-22T02:01:54;9.85;;;5.97;;
63112;SDS011;49206;48.020;21.378;2023-06-22T02:03:01;9.30;;;6.50;;
63112;SDS011;49206;48.020;21.378;2023-06-22T02:04:19;10.98;;;7.05;;
63112;SDS011;49206;48.020;21.378;2023-06-22T02:05:23;8.18;;;6.07;;
63112;SDS011;49206;48.020;21.378;2023-06-22T02:07:31;10.35;;;5.97;;
63112;SDS011;49206;48.020;21.378;2023-06-22T02:08:41;10.63;;;6.60;;
63112;SDS011;49206;48.020;21.378;2023-06-22T02:09:51;9.43;;;6.00;;
63112;SDS011;49206;48.020;21.378;2023-06-22T02:10:55;9.32;;;5.45;;
63112;SDS011;49206;48.020;21.378;2023-06-22T02:11:59;9.35;;;6.55;;
63112;SDS011;49206;48.020;21.378;2023-06-22T02:13:04;8.68;;;6.45;;
63112;SDS011;49206;48.020;21.378;2023-06-22T02:14:08;9.57;;;6.65;;
63112;SDS011;49206;48.020;21.378;2023-06-22T02:15:11;8.90;;;6.57;;
63112;SDS011;49206;48.020;21.378;2023-06-22T02:16:14;7.93;;;6.00;;
63112;SDS011;49206;48.020;21.378;2023-06-22T02:17:18;9.40;;;6.25;;
63112;SDS011;49206;48.020;21.378;2023-06-22T02:18:20;20.67;;;7.03;;
63112;SDS011;49206;48.020;21.378;2023-06-22T02:19:23;9.10;;;6.43;;
63112;SDS011;49206;48.020;21.378;2023-06-22T02:20:27;11.18;;;6.50;;
63112;SDS011;49206;48.020;21.378;2023-06-22T02:21:30;10.48;;;6.75;;
63112;SDS011;49206;48.020;21.378;2023-06-22T02:22:33;11.35;;;6.57;;
63112;SDS011;49206;48.020;21.378;2023-06-22T02:23:36;8.05;;;5.93;;
63112;SDS011;49206;48.020;21.378;2023-06-22T02:24:39;8.52;;;6.43;;
63112;SDS011;49206;48.020;21.378;2023-06-22T02:25:41;11.68;;;7.18;;
63112;SDS011;49206;48.020;21.378;2023-06-22T02:26:46;10.32;;;6.90;;
63112;SDS011;49206;48.020;21.378;2023-06-22T02:27:48;10.90;;;6.30;;
63112;SDS011;49206;48.020;21.378;2023-06-22T02:28:51;11.70;;;7.05;;
63112;SDS011;49206;48.020;21.378;2023-06-22T02:29:54;8.98;;;6.13;;
63112;SDS011;49206;48.020;21.378;2023-06-22T02:30:56;12.85;;;6.82;;
63112;SDS011;49206;48.020;21.378;2023-06-22T02:31:59;10.25;;;7.65;;
63112;SDS011;49206;48.020;21.378;2023-06-22T02:33:01;10.35;;;7.28;;
63112;SDS011;49206;48.020;21.378;2023-06-22T02:34:04;9.40;;;6.93;;
63112;SDS011;49206;48.020;21.378;2023-06-22T02:35:06;11.23;;;7.40;;
63112;SDS011;49206;48.020;21.378;2023-06-22T02:36:10;10.45;;;7.28;;
63112;SDS011;49206;48.020;21.378;2023-06-22T02:37:15;18.55;;;8.10;;
63112;SDS011;49206;48.020;21.378;2023-06-22T02:38:17;12.52;;;6.63;;
63112;SDS011;49206;48.020;21.378;2023-06-22T02:39:21;8.88;;;6.53;;
63112;SDS011;49206;48.020;21.378;2023-06-22T02:40:25;11.82;;;7.07;;
63112;SDS011;49206;48.020;21.378;2023-06-22T02:41:28;10.80;;;6.70;;
63112;SDS011;49206;48.020;21.378;2023-06-22T02:42:31;12.23;;;6.45;;
63112;SDS011;49206;48.020;21.378;2023-06-22T02:43:33;9.98;;;6.18;;
63112;SDS011;49206;48.020;21.378;2023-06-22T02:44:35;11.02;;;6.95;;
63112;SDS011;49206;48.020;21.378;2023-06-22T02:45:38;13.25;;;7.38;;
63112;SDS011;49206;48.020;21.378;2023-06-22T02:46:41;10.75;;;7.00;;
63112;SDS011;49206;48.020;21.378;2023-06-22T02:47:43;13.50;;;7.60;;
63112;SDS011;49206;48.020;21.378;2023-06-22T02:48:46;15.02;;;7.53;;
63112;SDS011;49206;48.020;21.378;2023-06-22T02:49:49;9.65;;;6.72;;
63112;SDS011;49206;48.020;21.378;2023-06-22T02:50:51;13.23;;;7.63;;
63112;SDS011;49206;48.020;21.378;2023-06-22T02:51:54;13.23;;;6.75;;
63112;SDS011;49206;48.020;21.378;2023-06-22T02:52:57;11.45;;;6.78;;
63112;SDS011;49206;48.020;21.378;2023-06-22T02:54:02;10.18;;;6.68;;
63112;SDS011;49206;48.020;21.378;2023-06-22T02:55:05;11.10;;;7.13;;
63112;SDS011;49206;48.020;21.378;2023-06-22T02:56:09;13.80;;;7.22;;
63112;SDS011;49206;48.020;21.378;2023-06-22T02:57:12;12.70;;;6.93;;
63112;SDS011;49206;48.020;21.378;2023-06-22T02:58:17;15.68;;;7.55;;
63112;SDS011;49206;48.020;21.378;2023-06-22T02:59:19;13.93;;;7.68;;
63112;SDS011;49206;48.020;21.378;2023-06-22T03:00:33;11.73;;;7.47;;
63112;SDS011;49206;48.020;21.378;2023-06-22T03:01:36;14.23;;;7.38;;
63112;SDS011;49206;48.020;21.378;2023-06-22T03:03:02;11.20;;;7.10;;
63112;SDS011;49206;48.020;21.378;2023-06-22T03:04:08;15.55;;;7.45;;
63112;SDS011;49206;48.020;21.378;2023-06-22T03:05:11;11.45;;;7.32;;
63112;SDS011;49206;48.020;21.378;2023-06-22T03:06:15;8.27;;;6.80;;
63112;SDS011;49206;48.020;21.378;2023-06-22T03:07:17;12.32;;;7.70;;
63112;SDS011;49206;48.020;21.378;2023-06-22T03:08:21;9.77;;;6.75;;
63112;SDS011;49206;48.020;21.378;2023-06-22T03:09:23;12.02;;;6.78;;
63112;SDS011;49206;48.020;21.378;2023-06-22T03:10:26;15.10;;;7.20;;
63112;SDS011;49206;48.020;21.378;2023-06-22T03:11:29;10.93;;;7.43;;
63112;SDS011;49206;48.020;21.378;2023-06-22T03:12:33;9.10;;;6.80;;
63112;SDS011;49206;48.020;21.378;2023-06-22T03:13:36;12.32;;;7.05;;
63112;SDS011;49206;48.020;21.378;2023-06-22T03:14:38;10.10;;;7.43;;
63112;SDS011;49206;48.020;21.378;2023-06-22T03:15:40;13.20;;;7.85;;
63112;SDS011;49206;48.020;21.378;2023-06-22T03:16:43;13.60;;;7.80;;
63112;SDS011;49206;48.020;21.378;2023-06-22T03:17:46;12.55;;;7.47;;
63112;SDS011;49206;48.020;21.378;2023-06-22T03:18:49;11.73;;;7.47;;
63112;SDS011;49206;48.020;21.378;2023-06-22T03:19:51;12.20;;;7.57;;
63112;SDS011;49206;48.020;21.378;2023-06-22T03:20:54;12.93;;;7.22;;
63112;SDS011;49206;48.020;21.378;2023-06-22T03:21:59;11.30;;;7.32;;
63112;SDS011;49206;48.020;21.378;2023-06-22T03:23:02;11.85;;;7.47;;
63112;SDS011;49206;48.020;21.378;2023-06-22T03:24:05;11.80;;;7.82;;
63112;SDS011;49206;48.020;21.378;2023-06-22T03:25:10;11.38;;;7.22;;
63112;SDS011;49206;48.020;21.378;2023-06-22T03:26:18;10.02;;;7.18;;
63112;SDS011;49206;48.020;21.378;2023-06-22T03:27:23;10.40;;;7.55;;
63112;SDS011;49206;48.020;21.378;2023-06-22T03:28:25;12.05;;;7.38;;
63112;SDS011;49206;48.020;21.378;2023-06-22T03:29:27;12.82;;;7.55;;
63112;SDS011;49206;48.020;21.378;2023-06-22T03:30:32;12.05;;;8.45;;
63112;SDS011;49206;48.020;21.378;2023-06-22T03:31:35;13.05;;;7.68;;
63112;SDS011;49206;48.020;21.378;2023-06-22T03:32:39;13.23;;;8.35;;
63112;SDS011;49206;48.020;21.378;2023-06-22T03:33:42;9.77;;;7.50;;
63112;SDS011;49206;48.020;21.378;2023-06-22T03:34:44;11.80;;;7.75;;
63112;SDS011;49206;48.020;21.378;2023-06-22T03:35:51;11.55;;;7.25;;
63112;SDS011;49206;48.020;21.378;2023-06-22T03:36:55;12.23;;;7.00;;
63112;SDS011;49206;48.020;21.378;2023-06-22T03:37:57;13.57;;;7.32;;
63112;SDS011;49206;48.020;21.378;2023-06-22T03:39:00;11.10;;;7.63;;
63112;SDS011;49206;48.020;21.378;2023-06-22T03:40:03;9.50;;;7.57;;
63112;SDS011;49206;48.020;21.378;2023-06-22T03:41:09;11.43;;;7.35;;
63112;SDS011;49206;48.020;21.378;2023-06-22T03:42:12;11.30;;;7.82;;
63112;SDS011;49206;48.020;21.378;2023-06-22T03:43:14;15.32;;;8.15;;
63112;SDS011;49206;48.020;21.378;2023-06-22T03:44:16;10.18;;;7.38;;
63112;SDS011;49206;48.020;21.378;2023-06-22T03:45:19;9.38;;;7.57;;
63112;SDS011;49206;48.020;21.378;2023-06-22T03:46:21;10.18;;;7.57;;
63112;SDS011;49206;48.020;21.378;2023-06-22T03:47:24;15.85;;;8.60;;
63112;SDS011;49206;48.020;21.378;2023-06-22T03:48:26;13.32;;;8.98;;
63112;SDS011;49206;48.020;21.378;2023-06-22T03:49:28;13.85;;;8.35;;
63112;SDS011;49206;48.020;21.378;2023-06-22T03:50:30;13.20;;;8.35;;
63112;SDS011;49206;48.020;21.378;2023-06-22T03:51:33;12.18;;;8.05;;
63112;SDS011;49206;48.020;21.378;2023-06-22T03:52:36;10.93;;;7.93;;
63112;SDS011;49206;48.020;21.378;2023-06-22T03:53:39;12.60;;;7.82;;
63112;SDS011;49206;48.020;21.378;2023-06-22T03:54:41;11.50;;;8.32;;
63112;SDS011;49206;48.020;21.378;2023-06-22T03:55:52;13.63;;;7.85;;
63112;SDS011;49206;48.020;21.378;2023-06-22T03:56:56;11.85;;;8.55;;
63112;SDS011;49206;48.020;21.378;2023-06-22T03:57:59;14.82;;;8.50;;
63112;SDS011;49206;48.020;21.378;2023-06-22T03:59:07;11.90;;;8.38;;
63112;SDS011;49206;48.020;21.378;2023-06-22T04:00:10;13.27;;;8.75;;
63112;SDS011;49206;48.020;21.378;2023-06-22T04:01:12;12.73;;;8.40;;
63112;SDS011;49206;48.020;21.378;2023-06-22T04:02:15;12.60;;;7.68;;
63112;SDS011;49206;48.020;21.378;2023-06-22T04:03:17;13.35;;;8.15;;
63112;SDS011;49206;48.020;21.378;2023-06-22T04:04:21;12.77;;;8.10;;
63112;SDS011;49206;48.020;21.378;2023-06-22T04:05:23;13.20;;;8.20;;
63112;SDS011;49206;48.020;21.378;2023-06-22T04:06:26;13.98;;;8.43;;
63112;SDS011;49206;48.020;21.378;2023-06-22T04:07:28;11.50;;;7.55;;
63112;SDS011;49206;48.020;21.378;2023-06-22T04:08:31;12.85;;;8.10;;
63112;SDS011;49206;48.020;21.378;2023-06-22T04:09:33;12.52;;;8.30;;
63112;SDS011;49206;48.020;21.378;2023-06-22T04:10:36;11.75;;;8.20;;
63112;SDS011;49206;48.020;21.378;2023-06-22T04:11:38;11.93;;;7.30;;
63112;SDS011;49206;48.020;21.378;2023-06-22T04:12:40;11.68;;;8.18;;
63112;SDS011;49206;48.020;21.378;2023-06-22T04:13:43;11.55;;;8.25;;
63112;SDS011;49206;48.020;21.378;2023-06-22T04:14:45;11.95;;;7.78;;
63112;SDS011;49206;48.020;21.378;2023-06-22T04:15:47;12.10;;;8.25;;
63112;SDS011;49206;48.020;21.378;2023-06-22T04:16:50;13.15;;;8.10;;
63112;SDS011;49206;48.020;21.378;2023-06-22T04:17:54;15.80;;;8.48;;
63112;SDS011;49206;48.020;21.378;2023-06-22T04:18:57;13.32;;;8.68;;
63112;SDS011;49206;48.020;21.378;2023-06-22T04:19:59;10.27;;;7.90;;
63112;SDS011;49206;48.020;21.378;2023-06-22T04:21:02;13.55;;;8.43;;
63112;SDS011;49206;48.020;21.378;2023-06-22T04:22:04;15.75;;;8.65;;
63112;SDS011;49206;48.020;21.378;2023-06-22T04:23:09;13.70;;;8.32;;
63112;SDS011;49206;48.020;21.378;2023-06-22T04:24:11;16.17;;;8.50;;
63112;SDS011;49206;48.020;21.378;2023-06-22T04:25:13;12.65;;;7.95;;
63112;SDS011;49206;48.020;21.378;2023-06-22T04:26:16;15.80;;;9.07;;
63112;SDS011;49206;48.020;21.378;2023-06-22T04:27:18;10.38;;;8.07;;
63112;SDS011;49206;48.020;21.378;2023-06-22T04:28:21;11.65;;;8.30;;
63112;SDS011;49206;48.020;21.378;2023-06-22T04:29:26;12.63;;;8.43;;
63112;SDS011;49206;48.020;21.378;2023-06-22T04:30:32;13.45;;;8.38;;
63112;SDS011;49206;48.020;21.378;2023-06-22T04:31:35;11.75;;;8.30;;
63112;SDS011;49206;48.020;21.378;2023-06-22T04:32:40;11.07;;;8.02;;
63112;SDS011;49206;48.020;21.378;2023-06-22T04:33:43;14.57;;;8.65;;
63112;SDS011;49206;48.020;21.378;2023-06-22T04:34:45;10.98;;;8.65;;
63112;SDS011;49206;48.020;21.378;2023-06-22T04:35:47;14.13;;;8.50;;
63112;SDS011;49206;48.020;21.378;2023-06-22T04:36:50;11.73;;;8.38;;
63112;SDS011;49206;48.020;21.378;2023-06-22T04:37:52;11.93;;;9.07;;
63112;SDS011;49206;48.020;21.378;2023-06-22T04:38:57;20.67;;;9.43;;
63112;SDS011;49206;48.020;21.378;2023-06-22T04:39:59;13.27;;;9.30;;
63112;SDS011;49206;48.020;21.378;2023-06-22T04:41:01;13.25;;;10.10;;
63112;SDS011;49206;48.020;21.378;2023-06-22T04:42:05;13.98;;;9.52;;
63112;SDS011;49206;48.020;21.378;2023-06-22T04:43:07;15.20;;;9.48;;
63112;SDS011;49206;48.020;21.378;2023-06-22T04:44:12;14.45;;;9.45;;
63112;SDS011;49206;48.020;21.378;2023-06-22T04:45:15;14.50;;;9.40;;
63112;SDS011;49206;48.020;21.378;2023-06-22T04:46:17;17.27;;;9.80;;
63112;SDS011;49206;48.020;21.378;2023-06-22T04:47:20;12.20;;;10.35;;
63112;SDS011;49206;48.020;21.378;2023-06-22T04:48:22;13.63;;;10.48;;
63112;SDS011;49206;48.020;21.378;2023-06-22T04:49:25;15.18;;;10.38;;
63112;SDS011;49206;48.020;21.378;2023-06-22T04:50:36;14.40;;;9.88;;
63112;SDS011;49206;48.020;21.378;2023-06-22T04:51:41;14.15;;;10.75;;
63112;SDS011;49206;48.020;21.378;2023-06-22T04:52:44;12.52;;;10.07;;
63112;SDS011;49206;48.020;21.378;2023-06-22T04:53:47;15.48;;;10.50;;
63112;SDS011;49206;48.020;21.378;2023-06-22T04:54:50;14.35;;;10.60;;
63112;SDS011;49206;48.020;21.378;2023-06-22T04:55:58;13.77;;;11.43;;
63112;SDS011;49206;48.020;21.378;2023-06-22T04:57:03;13.70;;;10.27;;
63112;SDS011;49206;48.020;21.378;2023-06-22T04:58:12;15.40;;;10.32;;
63112;SDS011;49206;48.020;21.378;2023-06-22T04:59:14;15.30;;;9.63;;
63112;SDS011;49206;48.020;21.378;2023-06-22T05:00:17;12.55;;;9.68;;
63112;SDS011;49206;48.020;21.378;2023-06-22T05:01:21;13.35;;;9.45;;
63112;SDS011;49206;48.020;21.378;2023-06-22T05:02:24;12.93;;;10.10;;
63112;SDS011;49206;48.020;21.378;2023-06-22T05:03:29;16.42;;;10.23;;
63112;SDS011;49206;48.020;21.378;2023-06-22T05:04:32;11.82;;;8.85;;
63112;SDS011;49206;48.020;21.378;2023-06-22T05:05:35;15.02;;;9.57;;
63112;SDS011;49206;48.020;21.378;2023-06-22T05:06:38;13.73;;;9.93;;
63112;SDS011;49206;48.020;21.378;2023-06-22T05:07:42;15.15;;;9.80;;
63112;SDS011;49206;48.020;21.378;2023-06-22T05:08:46;14.10;;;9.23;;
63112;SDS011;49206;48.020;21.378;2023-06-22T05:09:49;12.90;;;9.88;;
63112;SDS011;49206;48.020;21.378;2023-06-22T05:10:51;12.43;;;9.55;;
63112;SDS011;49206;48.020;21.378;2023-06-22T05:12:06;14.77;;;10.07;;
63112;SDS011;49206;48.020;21.378;2023-06-22T05:13:12;15.40;;;10.10;;
63112;SDS011;49206;48.020;21.378;2023-06-22T05:14:14;13.95;;;10.23;;
63112;SDS011;49206;48.020;21.378;2023-06-22T05:15:16;13.55;;;10.00;;
63112;SDS011;49206;48.020;21.378;2023-06-22T05:16:21;15.18;;;10.02;;
63112;SDS011;49206;48.020;21.378;2023-06-22T05:17:26;13.63;;;10.27;;
63112;SDS011;49206;48.020;21.378;2023-06-22T05:18:31;12.20;;;9.52;;
63112;SDS011;49206;48.020;21.378;2023-06-22T05:19:34;12.88;;;9.50;;
63112;SDS011;49206;48.020;21.378;2023-06-22T05:20:36;13.80;;;10.07;;
63112;SDS011;49206;48.020;21.378;2023-06-22T05:21:39;13.05;;;9.48;;
63112;SDS011;49206;48.020;21.378;2023-06-22T05:22:41;13.15;;;10.55;;
63112;SDS011;49206;48.020;21.378;2023-06-22T05:23:45;12.27;;;10.50;;
63112;SDS011;49206;48.020;21.378;2023-06-22T05:24:47;15.00;;;11.40;;
63112;SDS011;49206;48.020;21.378;2023-06-22T05:25:50;13.77;;;10.57;;
63112;SDS011;49206;48.020;21.378;2023-06-22T05:26:53;17.38;;;10.77;;
63112;SDS011;49206;48.020;21.378;2023-06-22T05:27:55;12.45;;;10.13;;
63112;SDS011;49206;48.020;21.378;2023-06-22T05:28:58;12.85;;;10.02;;
63112;SDS011;49206;48.020;21.378;2023-06-22T05:30:02;14.75;;;10.30;;
63112;SDS011;49206;48.020;21.378;2023-06-22T05:31:05;14.48;;;10.35;;
63112;SDS011;49206;48.020;21.378;2023-06-22T05:32:07;14.98;;;10.60;;
63112;SDS011;49206;48.020;21.378;2023-06-22T05:33:10;15.30;;;11.23;;
63112;SDS011;49206;48.020;21.378;2023-06-22T05:34:12;16.05;;;10.80;;
63112;SDS011;49206;48.020;21.378;2023-06-22T05:35:15;15.13;;;11.57;;
63112;SDS011;49206;48.020;21.378;2023-06-22T05:36:17;16.50;;;11.35;;
63112;SDS011;49206;48.020;21.378;2023-06-22T05:37:23;13.63;;;10.70;;
63112;SDS011;49206;48.020;21.378;2023-06-22T05:38:26;15.57;;;11.20;;
63112;SDS011;49206;48.020;21.378;2023-06-22T05:39:28;14.18;;;10.75;;
63112;SDS011;49206;48.020;21.378;2023-06-22T05:40:36;15.82;;;10.88;;
63112;SDS011;49206;48.020;21.378;2023-06-22T05:41:39;13.20;;;11.23;;
63112;SDS011;49206;48.020;21.378;2023-06-22T05:42:41;14.25;;;11.25;;
63112;SDS011;49206;48.020;21.378;2023-06-22T05:43:44;14.68;;;10.77;;
63112;SDS011;49206;48.020;21.378;2023-06-22T05:44:46;14.57;;;11.27;;
63112;SDS011;49206;48.020;21.378;2023-06-22T05:45:49;13.68;;;10.43;;
63112;SDS011;49206;48.020;21.378;2023-06-22T05:46:53;16.42;;;11.30;;
63112;SDS011;49206;48.020;21.378;2023-06-22T05:47:56;14.00;;;11.43;;
63112;SDS011;49206;48.020;21.378;2023-06-22T05:48:59;16.40;;;11.60;;
63112;SDS011;49206;48.020;21.378;2023-06-22T05:50:01;15.40;;;11.43;;
63112;SDS011;49206;48.020;21.378;2023-06-22T05:51:08;14.75;;;11.63;;
63112;SDS011;49206;48.020;21.378;2023-06-22T05:52:10;14.70;;;11.13;;
63112;SDS011;49206;48.020;21.378;2023-06-22T05:53:13;15.90;;;11.30;;
63112;SDS011;49206;48.020;21.378;2023-06-22T05:54:15;17.75;;;11.40;;
63112;SDS011;49206;48.020;21.378;2023-06-22T05:55:20;13.25;;;11.13;;
63112;SDS011;49206;48.020;21.378;2023-06-22T05:56:22;14.23;;;11.07;;
63112;SDS011;49206;48.020;21.378;2023-06-22T05:57:24;17.35;;;11.60;;
63112;SDS011;49206;48.020;21.378;2023-06-22T05:58:27;16.27;;;11.25;;
63112;SDS011;49206;48.020;21.378;2023-06-22T05:59:29;14.07;;;10.70;;
63112;SDS011;49206;48.020;21.378;2023-06-22T06:00:31;12.95;;;11.40;;
63112;SDS011;49206;48.020;21.378;2023-06-22T06:01:35;15.82;;;11.73;;
63112;SDS011;49206;48.020;21.378;2023-06-22T06:02:40;13.55;;;10.82;;
63112;SDS011;49206;48.020;21.378;2023-06-22T06:03:46;13.70;;;10.45;;
63112;SDS011;49206;48.020;21.378;2023-06-22T06:04:48;15.15;;;11.23;;
63112;SDS011;49206;48.020;21.378;2023-06-22T06:05:53;16.45;;;11.73;;
63112;SDS011;49206;48.020;21.378;2023-06-22T06:06:58;13.70;;;11.10;;
63112;SDS011;49206;48.020;21.378;2023-06-22T06:08:01;13.80;;;10.25;;
63112;SDS011;49206;48.020;21.378;2023-06-22T06:09:06;13.77;;;10.93;;
63112;SDS011;49206;48.020;21.378;2023-06-22T06:10:09;13.77;;;11.65;;
63112;SDS011;49206;48.020;21.378;2023-06-22T06:11:12;18.10;;;11.65;;
63112;SDS011;49206;48.020;21.378;2023-06-22T06:12:14;13.98;;;10.50;;
63112;SDS011;49206;48.020;21.378;2023-06-22T06:13:17;15.70;;;10.65;;
63112;SDS011;49206;48.020;21.378;2023-06-22T06:14:19;14.77;;;11.27;;
63112;SDS011;49206;48.020;21.378;2023-06-22T06:15:22;17.52;;;11.00;;
63112;SDS011;49206;48.020;21.378;2023-06-22T06:16:24;14.55;;;10.80;;
63112;SDS011;49206;48.020;21.378;2023-06-22T06:17:27;13.43;;;10.05;;
63112;SDS011;49206;48.020;21.378;2023-06-22T06:18:29;13.15;;;9.65;;
63112;SDS011;49206;48.020;21.378;2023-06-22T06:19:32;13.13;;;10.77;;
63112;SDS011;49206;48.020;21.378;2023-06-22T06:20:34;14.32;;;11.20;;
63112;SDS011;49206;48.020;21.378;2023-06-22T06:21:37;16.67;;;10.38;;
63112;SDS011;49206;48.020;21.378;2023-06-22T06:22:41;13.60;;;10.50;;
63112;SDS011;49206;48.020;21.378;2023-06-22T06:23:44;13.27;;;10.35;;
63112;SDS011;49206;48.020;21.378;2023-06-22T06:25:05;13.50;;;11.30;;